sensor_id;sensor_type;location;lat;lon;timestamp;temperature;humidity
8711;DHT22;4392;47.400;8.062;2023-06-19T00:01:17;25.60;68.90
8711;DHT22;4392;47.400;8.062;2023-06-19T00:03:46;25.70;68.50
8711;DHT22;4392;47.400;8.062;2023-06-19T00:06:12;25.50;70.10
8711;DHT22;4392;47.400;8.062;2023-06-19T00:08:38;25.40;70.10
8711;DHT22;4392;47.400;8.062;2023-06-19T00:11:12;25.50;69.70
8711;DHT22;4392;47.400;8.062;2023-06-19T00:13:38;25.60;68.80
8711;DHT22;4392;47.400;8.062;2023-06-19T00:16:05;25.60;69.70
8711;DHT22;4392;47.400;8.062;2023-06-19T00:18:30;25.50;69.70
8711;DHT22;4392;47.400;8.062;2023-06-19T00:21:03;25.50;69.60
8711;DHT22;4392;47.400;8.062;2023-06-19T00:23:36;25.60;69.60
8711;DHT22;4392;47.400;8.062;2023-06-19T00:26:11;25.60;69.40
8711;DHT22;4392;47.400;8.062;2023-06-19T00:28:39;25.60;69.10
8711;DHT22;4392;47.400;8.062;2023-06-19T00:31:11;25.50;69.20
8711;DHT22;4392;47.400;8.062;2023-06-19T00:33:40;25.50;69.20
8711;DHT22;4392;47.400;8.062;2023-06-19T00:36:16;25.50;69.50
8711;DHT22;4392;47.400;8.062;2023-06-19T00:38:48;25.50;69.50
8711;DHT22;4392;47.400;8.062;2023-06-19T00:41:15;25.50;70.10
8711;DHT22;4392;47.400;8.062;2023-06-19T00:43:42;25.40;70.30
8711;DHT22;4392;47.400;8.062;2023-06-19T00:46:08;25.40;69.80
8711;DHT22;4392;47.400;8.062;2023-06-19T00:48:38;25.50;69.90
8711;DHT22;4392;47.400;8.062;2023-06-19T00:51:04;25.50;70.20
8711;DHT22;4392;47.400;8.062;2023-06-19T00:53:31;25.50;69.50
8711;DHT22;4392;47.400;8.062;2023-06-19T00:56:03;25.60;69.10
8711;DHT22;4392;47.400;8.062;2023-06-19T00:58:30;25.50;69.70
8711;DHT22;4392;47.400;8.062;2023-06-19T01:03:40;25.20;71.10
8711;DHT22;4392;47.400;8.062;2023-06-19T01:06:19;25.20;71.60
8711;DHT22;4392;47.400;8.062;2023-06-19T01:08:58;25.20;71.40
8711;DHT22;4392;47.400;8.062;2023-06-19T01:11:31;25.00;72.80
8711;DHT22;4392;47.400;8.062;2023-06-19T01:14:18;25.10;71.70
8711;DHT22;4392;47.400;8.062;2023-06-19T01:16:49;25.10;71.30
8711;DHT22;4392;47.400;8.062;2023-06-19T01:19:21;25.20;71.10
8711;DHT22;4392;47.400;8.062;2023-06-19T01:21:50;25.20;71.50
8711;DHT22;4392;47.400;8.062;2023-06-19T01:24:16;25.20;71.10
8711;DHT22;4392;47.400;8.062;2023-06-19T01:26:45;25.30;70.70
8711;DHT22;4392;47.400;8.062;2023-06-19T01:29:14;25.20;71.10
8711;DHT22;4392;47.400;8.062;2023-06-19T01:32:25;25.20;71.10
8711;DHT22;4392;47.400;8.062;2023-06-19T01:35:06;25.10;70.80
8711;DHT22;4392;47.400;8.062;2023-06-19T01:37:36;25.10;71.00
8711;DHT22;4392;47.400;8.062;2023-06-19T01:40:03;25.10;71.30
8711;DHT22;4392;47.400;8.062;2023-06-19T01:45:16;24.70;71.70
8711;DHT22;4392;47.400;8.062;2023-06-19T01:47:42;24.90;71.80
8711;DHT22;4392;47.400;8.062;2023-06-19T01:50:08;24.70;71.20
8711;DHT22;4392;47.400;8.062;2023-06-19T01:52:40;24.40;71.60
8711;DHT22;4392;47.400;8.062;2023-06-19T01:55:06;24.50;71.40
8711;DHT22;4392;47.400;8.062;2023-06-19T01:57:38;24.40;71.60
8711;DHT22;4392;47.400;8.062;2023-06-19T02:00:04;24.50;72.30
8711;DHT22;4392;47.400;8.062;2023-06-19T02:02:34;24.60;71.60
8711;DHT22;4392;47.400;8.062;2023-06-19T02:05:03;24.50;71.60
8711;DHT22;4392;47.400;8.062;2023-06-19T02:07:30;24.40;71.30
8711;DHT22;4392;47.400;8.062;2023-06-19T02:09:57;24.40;72.90
8711;DHT22;4392;47.400;8.062;2023-06-19T02:12:24;24.30;72.90
8711;DHT22;4392;47.400;8.062;2023-06-19T02:14:49;24.30;72.20
8711;DHT22;4392;47.400;8.062;2023-06-19T02:17:15;24.60;71.80
8711;DHT22;4392;47.400;8.062;2023-06-19T02:19:41;24.60;71.60
8711;DHT22;4392;47.400;8.062;2023-06-19T02:22:10;24.60;71.80
8711;DHT22;4392;47.400;8.062;2023-06-19T02:24:39;24.70;71.60
8711;DHT22;4392;47.400;8.062;2023-06-19T02:27:05;24.60;72.10
8711;DHT22;4392;47.400;8.062;2023-06-19T02:29:33;24.50;72.70
8711;DHT22;4392;47.400;8.062;2023-06-19T02:32:00;24.40;73.20
8711;DHT22;4392;47.400;8.062;2023-06-19T02:34:26;24.20;74.10
8711;DHT22;4392;47.400;8.062;2023-06-19T02:36:52;24.00;75.40
8711;DHT22;4392;47.400;8.062;2023-06-19T02:39:18;24.20;74.50
8711;DHT22;4392;47.400;8.062;2023-06-19T02:41:47;24.40;74.20
8711;DHT22;4392;47.400;8.062;2023-06-19T02:44:13;24.40;74.00
8711;DHT22;4392;47.400;8.062;2023-06-19T02:46:39;24.60;73.90
8711;DHT22;4392;47.400;8.062;2023-06-19T02:49:11;24.60;73.50
8711;DHT22;4392;47.400;8.062;2023-06-19T02:51:36;24.80;73.10
8711;DHT22;4392;47.400;8.062;2023-06-19T02:54:02;24.80;72.60
8711;DHT22;4392;47.400;8.062;2023-06-19T02:56:30;24.80;72.50
8711;DHT22;4392;47.400;8.062;2023-06-19T02:58:58;24.70;72.80
8711;DHT22;4392;47.400;8.062;2023-06-19T03:01:24;24.80;72.90
8711;DHT22;4392;47.400;8.062;2023-06-19T03:03:50;24.90;73.00
8711;DHT22;4392;47.400;8.062;2023-06-19T03:06:17;24.90;72.70
8711;DHT22;4392;47.400;8.062;2023-06-19T03:08:43;25.00;72.70
8711;DHT22;4392;47.400;8.062;2023-06-19T03:11:10;24.90;72.30
8711;DHT22;4392;47.400;8.062;2023-06-19T03:13:49;24.90;72.50
8711;DHT22;4392;47.400;8.062;2023-06-19T03:16:18;24.90;72.40
8711;DHT22;4392;47.400;8.062;2023-06-19T03:18:44;24.90;72.80
8711;DHT22;4392;47.400;8.062;2023-06-19T03:21:17;24.60;74.30
8711;DHT22;4392;47.400;8.062;2023-06-19T03:23:49;24.80;73.40
8711;DHT22;4392;47.400;8.062;2023-06-19T03:26:19;24.90;74.40
8711;DHT22;4392;47.400;8.062;2023-06-19T03:28:45;24.90;74.80
8711;DHT22;4392;47.400;8.062;2023-06-19T03:31:17;25.00;75.50
8711;DHT22;4392;47.400;8.062;2023-06-19T03:33:42;24.90;77.30
8711;DHT22;4392;47.400;8.062;2023-06-19T03:36:10;24.70;79.40
8711;DHT22;4392;47.400;8.062;2023-06-19T03:38:36;24.30;82.90
8711;DHT22;4392;47.400;8.062;2023-06-19T03:41:02;23.80;85.80
8711;DHT22;4392;47.400;8.062;2023-06-19T03:43:30;23.80;86.60
8711;DHT22;4392;47.400;8.062;2023-06-19T03:46:01;24.00;86.10
8711;DHT22;4392;47.400;8.062;2023-06-19T03:48:27;24.00;85.60
8711;DHT22;4392;47.400;8.062;2023-06-19T03:50:53;24.00;85.40
8711;DHT22;4392;47.400;8.062;2023-06-19T03:53:21;24.00;85.10
8711;DHT22;4392;47.400;8.062;2023-06-19T03:55:47;24.00;85.80
8711;DHT22;4392;47.400;8.062;2023-06-19T03:58:13;24.00;86.10
8711;DHT22;4392;47.400;8.062;2023-06-19T04:00:39;24.00;87.70
8711;DHT22;4392;47.400;8.062;2023-06-19T04:03:04;23.90;90.00
8711;DHT22;4392;47.400;8.062;2023-06-19T04:05:33;23.80;91.00
8711;DHT22;4392;47.400;8.062;2023-06-19T04:07:59;23.70;91.40
8711;DHT22;4392;47.400;8.062;2023-06-19T04:10:27;23.70;91.80
8711;DHT22;4392;47.400;8.062;2023-06-19T04:12:56;24.00;87.10
8711;DHT22;4392;47.400;8.062;2023-06-19T04:15:22;24.30;85.30
8711;DHT22;4392;47.400;8.062;2023-06-19T04:17:51;24.40;84.40
8711;DHT22;4392;47.400;8.062;2023-06-19T04:20:18;24.50;85.10
8711;DHT22;4392;47.400;8.062;2023-06-19T04:22:43;24.60;84.60
8711;DHT22;4392;47.400;8.062;2023-06-19T04:25:10;24.40;92.00
8711;DHT22;4392;47.400;8.062;2023-06-19T04:27:41;24.20;92.90
8711;DHT22;4392;47.400;8.062;2023-06-19T04:30:07;23.90;95.80
8711;DHT22;4392;47.400;8.062;2023-06-19T04:32:36;23.70;98.50
8711;DHT22;4392;47.400;8.062;2023-06-19T04:35:09;23.70;99.90
8711;DHT22;4392;47.400;8.062;2023-06-19T04:37:53;23.60;99.90
8711;DHT22;4392;47.400;8.062;2023-06-19T04:40:20;23.60;99.90
8711;DHT22;4392;47.400;8.062;2023-06-19T04:42:51;23.60;99.90
8711;DHT22;4392;47.400;8.062;2023-06-19T04:45:19;23.70;95.60
8711;DHT22;4392;47.400;8.062;2023-06-19T04:47:50;24.00;95.30
8711;DHT22;4392;47.400;8.062;2023-06-19T04:50:19;23.70;99.90
8711;DHT22;4392;47.400;8.062;2023-06-19T04:52:50;23.70;99.90
8711;DHT22;4392;47.400;8.062;2023-06-19T04:55:16;23.40;99.90
8711;DHT22;4392;47.400;8.062;2023-06-19T04:57:44;23.40;99.90
8711;DHT22;4392;47.400;8.062;2023-06-19T05:00:10;23.50;99.90
8711;DHT22;4392;47.400;8.062;2023-06-19T05:02:38;23.50;99.90
8711;DHT22;4392;47.400;8.062;2023-06-19T05:05:11;23.70;97.90
8711;DHT22;4392;47.400;8.062;2023-06-19T05:07:46;23.60;99.90
8711;DHT22;4392;47.400;8.062;2023-06-19T05:10:12;23.60;99.90
8711;DHT22;4392;47.400;8.062;2023-06-19T05:12:37;23.50;99.90
8711;DHT22;4392;47.400;8.062;2023-06-19T05:15:03;23.40;99.90
8711;DHT22;4392;47.400;8.062;2023-06-19T05:17:29;23.40;99.90
8711;DHT22;4392;47.400;8.062;2023-06-19T05:19:58;23.30;99.90
8711;DHT22;4392;47.400;8.062;2023-06-19T05:22:24;23.30;99.90
8711;DHT22;4392;47.400;8.062;2023-06-19T05:24:50;23.30;99.90
8711;DHT22;4392;47.400;8.062;2023-06-19T05:27:15;23.50;99.90
8711;DHT22;4392;47.400;8.062;2023-06-19T05:29:41;23.70;99.90
8711;DHT22;4392;47.400;8.062;2023-06-19T05:32:13;23.50;99.90
8711;DHT22;4392;47.400;8.062;2023-06-19T05:34:39;23.40;99.90
8711;DHT22;4392;47.400;8.062;2023-06-19T05:37:06;23.20;99.90
8711;DHT22;4392;47.400;8.062;2023-06-19T05:39:37;23.30;99.90
8711;DHT22;4392;47.400;8.062;2023-06-19T05:42:03;23.30;99.90
8711;DHT22;4392;47.400;8.062;2023-06-19T05:44:32;23.20;99.90
8711;DHT22;4392;47.400;8.062;2023-06-19T05:47:00;23.20;99.90
8711;DHT22;4392;47.400;8.062;2023-06-19T05:49:26;23.30;99.90
8711;DHT22;4392;47.400;8.062;2023-06-19T05:51:55;23.50;99.90
8711;DHT22;4392;47.400;8.062;2023-06-19T05:54:25;23.80;97.70
8711;DHT22;4392;47.400;8.062;2023-06-19T05:56:53;24.00;96.30
8711;DHT22;4392;47.400;8.062;2023-06-19T05:59:19;24.00;99.90
8711;DHT22;4392;47.400;8.062;2023-06-19T06:01:51;24.10;97.90
8711;DHT22;4392;47.400;8.062;2023-06-19T06:04:20;24.10;97.10
8711;DHT22;4392;47.400;8.062;2023-06-19T06:06:48;24.20;97.60
8711;DHT22;4392;47.400;8.062;2023-06-19T06:09:17;24.20;97.10
8711;DHT22;4392;47.400;8.062;2023-06-19T06:11:51;24.20;98.60
8711;DHT22;4392;47.400;8.062;2023-06-19T06:14:17;24.20;98.80
8711;DHT22;4392;47.400;8.062;2023-06-19T06:16:43;24.10;99.90
8711;DHT22;4392;47.400;8.062;2023-06-19T06:19:08;23.80;99.90
8711;DHT22;4392;47.400;8.062;2023-06-19T06:21:36;23.80;99.90
8711;DHT22;4392;47.400;8.062;2023-06-19T06:24:06;23.80;99.90
8711;DHT22;4392;47.400;8.062;2023-06-19T06:26:32;23.80;99.90
8711;DHT22;4392;47.400;8.062;2023-06-19T06:28:58;23.70;99.90
8711;DHT22;4392;47.400;8.062;2023-06-19T06:31:28;23.70;99.90
8711;DHT22;4392;47.400;8.062;2023-06-19T06:33:54;23.70;99.90
8711;DHT22;4392;47.400;8.062;2023-06-19T06:36:20;23.70;99.90
8711;DHT22;4392;47.400;8.062;2023-06-19T06:38:46;23.80;99.90
8711;DHT22;4392;47.400;8.062;2023-06-19T06:41:12;23.80;99.90
8711;DHT22;4392;47.400;8.062;2023-06-19T06:43:43;23.80;99.90
8711;DHT22;4392;47.400;8.062;2023-06-19T06:46:10;23.80;99.90
8711;DHT22;4392;47.400;8.062;2023-06-19T06:48:36;23.80;99.90
8711;DHT22;4392;47.400;8.062;2023-06-19T06:51:02;24.10;99.90
8711;DHT22;4392;47.400;8.062;2023-06-19T06:53:34;24.10;99.90
8711;DHT22;4392;47.400;8.062;2023-06-19T06:56:00;24.00;99.90
8711;DHT22;4392;47.400;8.062;2023-06-19T06:58:26;23.90;99.90
8711;DHT22;4392;47.400;8.062;2023-06-19T07:00:55;23.80;99.90
8711;DHT22;4392;47.400;8.062;2023-06-19T07:03:21;23.80;99.90
8711;DHT22;4392;47.400;8.062;2023-06-19T07:05:48;23.80;99.90
8711;DHT22;4392;47.400;8.062;2023-06-19T07:08:14;23.80;99.90
8711;DHT22;4392;47.400;8.062;2023-06-19T07:10:39;23.80;99.90
8711;DHT22;4392;47.400;8.062;2023-06-19T07:13:10;23.80;99.90
8711;DHT22;4392;47.400;8.062;2023-06-19T07:15:36;23.80;99.90
8711;DHT22;4392;47.400;8.062;2023-06-19T07:18:04;23.80;99.90
8711;DHT22;4392;47.400;8.062;2023-06-19T07:20:30;23.80;99.90
8711;DHT22;4392;47.400;8.062;2023-06-19T07:22:57;23.80;99.90
8711;DHT22;4392;47.400;8.062;2023-06-19T07:25:26;23.80;99.90
8711;DHT22;4392;47.400;8.062;2023-06-19T07:27:52;23.50;99.90
8711;DHT22;4392;47.400;8.062;2023-06-19T07:30:18;23.50;99.90
8711;DHT22;4392;47.400;8.062;2023-06-19T07:32:47;23.30;99.90
8711;DHT22;4392;47.400;8.062;2023-06-19T07:35:12;23.40;99.90
8711;DHT22;4392;47.400;8.062;2023-06-19T07:37:38;23.60;99.90
8711;DHT22;4392;47.400;8.062;2023-06-19T07:40:06;23.80;99.90
8711;DHT22;4392;47.400;8.062;2023-06-19T07:42:37;23.90;99.90
8711;DHT22;4392;47.400;8.062;2023-06-19T07:45:04;23.90;99.90
8711;DHT22;4392;47.400;8.062;2023-06-19T07:47:29;24.00;99.90
8711;DHT22;4392;47.400;8.062;2023-06-19T07:49:56;24.00;99.90
8711;DHT22;4392;47.400;8.062;2023-06-19T07:52:27;24.00;99.90
8711;DHT22;4392;47.400;8.062;2023-06-19T07:54:59;23.90;99.90
8711;DHT22;4392;47.400;8.062;2023-06-19T07:57:26;24.00;99.90
8711;DHT22;4392;47.400;8.062;2023-06-19T07:59:55;23.80;99.90
8711;DHT22;4392;47.400;8.062;2023-06-19T08:02:20;23.60;99.90
8711;DHT22;4392;47.400;8.062;2023-06-19T08:04:50;23.90;99.90
8711;DHT22;4392;47.400;8.062;2023-06-19T08:07:16;24.00;99.90
8711;DHT22;4392;47.400;8.062;2023-06-19T08:09:47;24.10;99.90
8711;DHT22;4392;47.400;8.062;2023-06-19T08:12:14;23.80;99.90
8711;DHT22;4392;47.400;8.062;2023-06-19T08:14:39;23.90;99.90
8711;DHT22;4392;47.400;8.062;2023-06-19T08:17:05;24.10;99.90
8711;DHT22;4392;47.400;8.062;2023-06-19T08:19:31;24.30;99.90
8711;DHT22;4392;47.400;8.062;2023-06-19T08:21:57;24.30;99.90
8711;DHT22;4392;47.400;8.062;2023-06-19T08:24:25;24.30;99.90
8711;DHT22;4392;47.400;8.062;2023-06-19T08:26:51;24.20;99.90
8711;DHT22;4392;47.400;8.062;2023-06-19T08:29:18;24.20;99.90
8711;DHT22;4392;47.400;8.062;2023-06-19T08:31:48;24.10;99.90
8711;DHT22;4392;47.400;8.062;2023-06-19T08:34:13;24.20;99.90
8711;DHT22;4392;47.400;8.062;2023-06-19T08:36:39;24.30;99.90
8711;DHT22;4392;47.400;8.062;2023-06-19T08:39:08;24.40;99.90
8711;DHT22;4392;47.400;8.062;2023-06-19T08:41:37;24.50;99.50
8711;DHT22;4392;47.400;8.062;2023-06-19T08:44:11;24.50;99.40
8711;DHT22;4392;47.400;8.062;2023-06-19T08:46:40;24.50;99.00
8711;DHT22;4392;47.400;8.062;2023-06-19T08:49:08;24.60;99.40
8711;DHT22;4392;47.400;8.062;2023-06-19T08:51:35;24.50;99.80
8711;DHT22;4392;47.400;8.062;2023-06-19T08:54:07;24.60;99.10
8711;DHT22;4392;47.400;8.062;2023-06-19T08:56:34;24.70;98.20
8711;DHT22;4392;47.400;8.062;2023-06-19T08:59:19;24.80;98.70
8711;DHT22;4392;47.400;8.062;2023-06-19T09:01:51;24.90;98.40
8711;DHT22;4392;47.400;8.062;2023-06-19T09:04:25;24.90;98.00
8711;DHT22;4392;47.400;8.062;2023-06-19T09:07:19;24.90;98.10
8711;DHT22;4392;47.400;8.062;2023-06-19T09:09:45;25.00;97.40
8711;DHT22;4392;47.400;8.062;2023-06-19T09:12:13;25.10;97.60
8711;DHT22;4392;47.400;8.062;2023-06-19T09:14:40;24.90;97.90
8711;DHT22;4392;47.400;8.062;2023-06-19T09:17:22;24.90;98.80
8711;DHT22;4392;47.400;8.062;2023-06-19T09:19:51;25.10;98.20
8711;DHT22;4392;47.400;8.062;2023-06-19T09:22:20;25.20;97.60
8711;DHT22;4392;47.400;8.062;2023-06-19T09:24:48;25.20;97.90
8711;DHT22;4392;47.400;8.062;2023-06-19T09:27:15;25.40;96.80
8711;DHT22;4392;47.400;8.062;2023-06-19T09:29:47;25.30;96.80
8711;DHT22;4392;47.400;8.062;2023-06-19T09:32:26;25.10;97.60
8711;DHT22;4392;47.400;8.062;2023-06-19T09:34:58;25.00;96.90
8711;DHT22;4392;47.400;8.062;2023-06-19T09:37:28;25.00;96.50
8711;DHT22;4392;47.400;8.062;2023-06-19T09:40:04;25.10;96.60
8711;DHT22;4392;47.400;8.062;2023-06-19T09:42:42;25.10;96.20
8711;DHT22;4392;47.400;8.062;2023-06-19T09:45:18;25.10;95.50
8711;DHT22;4392;47.400;8.062;2023-06-19T09:47:51;25.10;96.50
8711;DHT22;4392;47.400;8.062;2023-06-19T09:50:17;24.90;97.70
8711;DHT22;4392;47.400;8.062;2023-06-19T09:52:44;25.10;97.20
8711;DHT22;4392;47.400;8.062;2023-06-19T09:55:12;25.20;96.20
8711;DHT22;4392;47.400;8.062;2023-06-19T09:57:44;25.40;94.90
8711;DHT22;4392;47.400;8.062;2023-06-19T10:00:11;25.50;94.30
8711;DHT22;4392;47.400;8.062;2023-06-19T10:02:46;25.50;94.30
8711;DHT22;4392;47.400;8.062;2023-06-19T10:05:12;25.50;94.00
8711;DHT22;4392;47.400;8.062;2023-06-19T10:07:46;25.40;92.80
8711;DHT22;4392;47.400;8.062;2023-06-19T10:10:27;25.30;87.20
8711;DHT22;4392;47.400;8.062;2023-06-19T10:13:16;25.20;86.60
8711;DHT22;4392;47.400;8.062;2023-06-19T10:15:43;25.30;86.40
8711;DHT22;4392;47.400;8.062;2023-06-19T10:18:16;25.40;86.10
8711;DHT22;4392;47.400;8.062;2023-06-19T10:20:42;25.40;86.50
8711;DHT22;4392;47.400;8.062;2023-06-19T10:23:23;25.50;86.60
8711;DHT22;4392;47.400;8.062;2023-06-19T10:25:58;25.50;85.50
8711;DHT22;4392;47.400;8.062;2023-06-19T10:28:33;25.50;85.50
8711;DHT22;4392;47.400;8.062;2023-06-19T10:33:33;25.60;81.10
8711;DHT22;4392;47.400;8.062;2023-06-19T10:36:00;25.60;79.20
8711;DHT22;4392;47.400;8.062;2023-06-19T10:38:30;25.70;77.70
8711;DHT22;4392;47.400;8.062;2023-06-19T10:40:56;25.70;77.60
8711;DHT22;4392;47.400;8.062;2023-06-19T10:43:23;25.70;77.90
8711;DHT22;4392;47.400;8.062;2023-06-19T10:45:58;25.80;78.00
8711;DHT22;4392;47.400;8.062;2023-06-19T10:48:25;25.80;81.50
8711;DHT22;4392;47.400;8.062;2023-06-19T10:50:52;25.90;78.00
8711;DHT22;4392;47.400;8.062;2023-06-19T10:53:32;25.90;76.30
8711;DHT22;4392;47.400;8.062;2023-06-19T10:56:01;25.90;75.00
8711;DHT22;4392;47.400;8.062;2023-06-19T10:58:28;25.90;81.80
8711;DHT22;4392;47.400;8.062;2023-06-19T11:00:54;26.00;80.50
8711;DHT22;4392;47.400;8.062;2023-06-19T11:03:23;26.00;76.80
8711;DHT22;4392;47.400;8.062;2023-06-19T11:05:49;26.00;75.40
8711;DHT22;4392;47.400;8.062;2023-06-19T11:08:24;26.10;74.40
8711;DHT22;4392;47.400;8.062;2023-06-19T11:10:50;26.10;73.30
8711;DHT22;4392;47.400;8.062;2023-06-19T11:13:21;26.10;73.20
8711;DHT22;4392;47.400;8.062;2023-06-19T11:15:57;26.20;72.20
8711;DHT22;4392;47.400;8.062;2023-06-19T11:18:23;26.30;72.20
8711;DHT22;4392;47.400;8.062;2023-06-19T11:20:51;26.30;73.60
8711;DHT22;4392;47.400;8.062;2023-06-19T11:23:32;26.30;73.60
8711;DHT22;4392;47.400;8.062;2023-06-19T11:26:09;26.30;73.70
8711;DHT22;4392;47.400;8.062;2023-06-19T11:28:39;26.40;73.80
8711;DHT22;4392;47.400;8.062;2023-06-19T11:31:05;26.40;73.30
8711;DHT22;4392;47.400;8.062;2023-06-19T11:33:31;26.60;71.50
8711;DHT22;4392;47.400;8.062;2023-06-19T11:36:05;26.50;70.30
8711;DHT22;4392;47.400;8.062;2023-06-19T11:38:30;26.60;68.80
8711;DHT22;4392;47.400;8.062;2023-06-19T11:40:56;26.60;67.20
8711;DHT22;4392;47.400;8.062;2023-06-19T11:43:45;26.70;67.40
8711;DHT22;4392;47.400;8.062;2023-06-19T11:46:10;26.80;67.30
8711;DHT22;4392;47.400;8.062;2023-06-19T11:48:42;26.80;67.20
8711;DHT22;4392;47.400;8.062;2023-06-19T11:51:08;26.90;66.60
8711;DHT22;4392;47.400;8.062;2023-06-19T11:53:34;26.90;65.70
8711;DHT22;4392;47.400;8.062;2023-06-19T11:56:01;26.90;65.80
8711;DHT22;4392;47.400;8.062;2023-06-19T11:58:29;27.00;65.90
8711;DHT22;4392;47.400;8.062;2023-06-19T12:00:55;27.10;65.40
8711;DHT22;4392;47.400;8.062;2023-06-19T12:03:21;27.20;65.60
8711;DHT22;4392;47.400;8.062;2023-06-19T12:05:47;27.30;65.00
8711;DHT22;4392;47.400;8.062;2023-06-19T12:08:15;27.30;65.10
8711;DHT22;4392;47.400;8.062;2023-06-19T12:10:42;27.30;65.00
8711;DHT22;4392;47.400;8.062;2023-06-19T12:13:07;27.30;64.60
8711;DHT22;4392;47.400;8.062;2023-06-19T12:15:33;27.20;64.00
8711;DHT22;4392;47.400;8.062;2023-06-19T12:17:58;27.20;63.50
8711;DHT22;4392;47.400;8.062;2023-06-19T12:20:24;27.10;62.80
8711;DHT22;4392;47.400;8.062;2023-06-19T12:22:50;27.30;63.10
8711;DHT22;4392;47.400;8.062;2023-06-19T12:25:18;27.30;62.80
8711;DHT22;4392;47.400;8.062;2023-06-19T12:27:47;27.30;62.50
8711;DHT22;4392;47.400;8.062;2023-06-19T12:30:18;27.30;62.20
8711;DHT22;4392;47.400;8.062;2023-06-19T12:32:44;27.40;62.30
8711;DHT22;4392;47.400;8.062;2023-06-19T12:35:10;27.40;62.60
8711;DHT22;4392;47.400;8.062;2023-06-19T12:37:38;27.40;62.10
8711;DHT22;4392;47.400;8.062;2023-06-19T12:40:06;27.40;61.60
8711;DHT22;4392;47.400;8.062;2023-06-19T12:42:38;27.40;61.30
8711;DHT22;4392;47.400;8.062;2023-06-19T12:45:04;27.40;61.50
8711;DHT22;4392;47.400;8.062;2023-06-19T12:47:30;27.40;61.40
8711;DHT22;4392;47.400;8.062;2023-06-19T12:49:58;27.40;60.80
8711;DHT22;4392;47.400;8.062;2023-06-19T12:52:24;27.40;59.80
8711;DHT22;4392;47.400;8.062;2023-06-19T12:54:50;27.30;59.20
8711;DHT22;4392;47.400;8.062;2023-06-19T12:57:18;27.30;58.90
8711;DHT22;4392;47.400;8.062;2023-06-19T12:59:47;27.30;59.00
8711;DHT22;4392;47.400;8.062;2023-06-19T13:02:12;27.30;59.30
8711;DHT22;4392;47.400;8.062;2023-06-19T13:04:40;27.20;59.30
8711;DHT22;4392;47.400;8.062;2023-06-19T13:07:06;27.20;59.80
8711;DHT22;4392;47.400;8.062;2023-06-19T13:09:32;27.20;60.00
8711;DHT22;4392;47.400;8.062;2023-06-19T13:11:59;27.20;59.90
8711;DHT22;4392;47.400;8.062;2023-06-19T13:14:25;27.30;60.10
8711;DHT22;4392;47.400;8.062;2023-06-19T13:16:50;27.20;60.70
8711;DHT22;4392;47.400;8.062;2023-06-19T13:19:16;27.30;61.00
8711;DHT22;4392;47.400;8.062;2023-06-19T13:21:42;27.30;60.90
8711;DHT22;4392;47.400;8.062;2023-06-19T13:24:11;27.30;60.70
8711;DHT22;4392;47.400;8.062;2023-06-19T13:26:37;27.30;60.40
8711;DHT22;4392;47.400;8.062;2023-06-19T13:29:06;27.40;60.00
8711;DHT22;4392;47.400;8.062;2023-06-19T13:31:32;27.50;59.70
8711;DHT22;4392;47.400;8.062;2023-06-19T13:33:58;27.90;59.40
8711;DHT22;4392;47.400;8.062;2023-06-19T13:36:24;28.10;59.20
8711;DHT22;4392;47.400;8.062;2023-06-19T13:38:56;28.30;59.40
8711;DHT22;4392;47.400;8.062;2023-06-19T13:41:25;28.40;58.10
8711;DHT22;4392;47.400;8.062;2023-06-19T13:43:52;28.50;57.70
8711;DHT22;4392;47.400;8.062;2023-06-19T13:46:23;28.60;57.70
8711;DHT22;4392;47.400;8.062;2023-06-19T13:48:49;28.80;58.20
8711;DHT22;4392;47.400;8.062;2023-06-19T13:51:22;29.00;57.40
8711;DHT22;4392;47.400;8.062;2023-06-19T13:53:51;29.00;57.50
8711;DHT22;4392;47.400;8.062;2023-06-19T13:56:17;28.90;57.30
8711;DHT22;4392;47.400;8.062;2023-06-19T13:58:43;29.00;57.50
8711;DHT22;4392;47.400;8.062;2023-06-19T14:01:11;29.30;57.40
8711;DHT22;4392;47.400;8.062;2023-06-19T14:03:40;29.50;56.80
8711;DHT22;4392;47.400;8.062;2023-06-19T14:06:06;29.40;56.60
8711;DHT22;4392;47.400;8.062;2023-06-19T14:08:32;29.70;56.60
8711;DHT22;4392;47.400;8.062;2023-06-19T14:10:58;29.80;56.20
8711;DHT22;4392;47.400;8.062;2023-06-19T14:13:25;29.90;55.50
8711;DHT22;4392;47.400;8.062;2023-06-19T14:15:54;30.10;54.90
8711;DHT22;4392;47.400;8.062;2023-06-19T14:18:19;30.30;54.10
8711;DHT22;4392;47.400;8.062;2023-06-19T14:20:45;30.40;53.60
8711;DHT22;4392;47.400;8.062;2023-06-19T14:23:11;30.40;53.40
8711;DHT22;4392;47.400;8.062;2023-06-19T14:25:37;30.40;52.20
8711;DHT22;4392;47.400;8.062;2023-06-19T14:28:09;30.40;52.00
8711;DHT22;4392;47.400;8.062;2023-06-19T14:30:35;30.50;52.10
8711;DHT22;4392;47.400;8.062;2023-06-19T14:33:00;30.60;52.60
8711;DHT22;4392;47.400;8.062;2023-06-19T14:35:27;30.80;52.40
8711;DHT22;4392;47.400;8.062;2023-06-19T14:37:53;31.20;52.00
8711;DHT22;4392;47.400;8.062;2023-06-19T14:40:21;31.10;51.30
8711;DHT22;4392;47.400;8.062;2023-06-19T14:42:50;31.00;51.40
8711;DHT22;4392;47.400;8.062;2023-06-19T14:45:16;31.20;51.10
8711;DHT22;4392;47.400;8.062;2023-06-19T14:47:48;31.20;50.80
8711;DHT22;4392;47.400;8.062;2023-06-19T14:50:16;31.40;50.20
8711;DHT22;4392;47.400;8.062;2023-06-19T14:52:48;31.30;50.00
8711;DHT22;4392;47.400;8.062;2023-06-19T14:55:17;31.20;50.20
8711;DHT22;4392;47.400;8.062;2023-06-19T14:57:43;31.10;50.40
8711;DHT22;4392;47.400;8.062;2023-06-19T15:00:12;31.50;49.60
8711;DHT22;4392;47.400;8.062;2023-06-19T15:02:39;31.60;49.20
8711;DHT22;4392;47.400;8.062;2023-06-19T15:05:05;31.60;48.70
8711;DHT22;4392;47.400;8.062;2023-06-19T15:07:31;31.70;47.90
8711;DHT22;4392;47.400;8.062;2023-06-19T15:10:00;31.80;48.00
8711;DHT22;4392;47.400;8.062;2023-06-19T15:12:25;31.90;47.50
8711;DHT22;4392;47.400;8.062;2023-06-19T15:14:51;32.00;47.10
8711;DHT22;4392;47.400;8.062;2023-06-19T15:17:17;32.30;47.20
8711;DHT22;4392;47.400;8.062;2023-06-19T15:19:43;32.50;47.00
8711;DHT22;4392;47.400;8.062;2023-06-19T15:22:14;32.50;46.80
8711;DHT22;4392;47.400;8.062;2023-06-19T15:24:40;32.70;46.80
8711;DHT22;4392;47.400;8.062;2023-06-19T15:27:06;32.90;46.80
8711;DHT22;4392;47.400;8.062;2023-06-19T15:29:31;33.10;46.40
8711;DHT22;4392;47.400;8.062;2023-06-19T15:32:03;33.10;46.00
8711;DHT22;4392;47.400;8.062;2023-06-19T15:34:28;32.80;46.60
8711;DHT22;4392;47.400;8.062;2023-06-19T15:36:54;32.60;47.00
8711;DHT22;4392;47.400;8.062;2023-06-19T15:39:23;32.70;46.70
8711;DHT22;4392;47.400;8.062;2023-06-19T15:41:49;32.90;45.60
8711;DHT22;4392;47.400;8.062;2023-06-19T15:44:16;32.90;45.70
8711;DHT22;4392;47.400;8.062;2023-06-19T15:46:42;32.70;45.90
8711;DHT22;4392;47.400;8.062;2023-06-19T15:49:11;32.60;47.10
8711;DHT22;4392;47.400;8.062;2023-06-19T15:51:38;32.40;47.90
8711;DHT22;4392;47.400;8.062;2023-06-19T15:54:04;32.20;48.70
8711;DHT22;4392;47.400;8.062;2023-06-19T15:56:34;32.00;50.00
8711;DHT22;4392;47.400;8.062;2023-06-19T15:59:00;31.90;50.90
8711;DHT22;4392;47.400;8.062;2023-06-19T16:01:26;31.90;51.20
8711;DHT22;4392;47.400;8.062;2023-06-19T16:03:52;32.00;51.10
8711;DHT22;4392;47.400;8.062;2023-06-19T16:06:18;32.20;51.00
8711;DHT22;4392;47.400;8.062;2023-06-19T16:08:48;32.20;51.10
8711;DHT22;4392;47.400;8.062;2023-06-19T16:11:18;32.20;50.90
8711;DHT22;4392;47.400;8.062;2023-06-19T16:13:47;32.10;50.70
8711;DHT22;4392;47.400;8.062;2023-06-19T16:16:13;32.00;50.90
8711;DHT22;4392;47.400;8.062;2023-06-19T16:18:38;32.10;51.40